Date,TemperatureHighF,TemperatureAvgF,TemperatureLowF,DewpointHighF,DewpointAvgF,DewpointLowF,HumidityHigh,HumidityAvg,HumidityLow,PressureMaxIn,PressureMinIn,WindSpeedMaxMPH,WindSpeedAvgMPH,GustSpeedMaxMPH,PrecipitationSumIn
2013-1-1,38.9,31.7,21.3,28.3,21.2,9.8,92,66,54,29.95,29.77,6,3,13,0.00
2013-1-2,31.3,22.7,14.9,16.1,12.2,8.4,78,64,50,30.10,29.93,5,2,10,0.00
2013-1-3,29.0,17.7,6.9,14.1,4.8,-3.8,86,59,27,30.16,30.02,6,2,13,0.00
2013-1-4,40.1,24.7,5.7,26.0,17.8,3.1,93,76,55,30.02,29.86,8,2,18,0.01
2013-1-5,45.4,31.6,20.1,26.4,22.1,17.9,92,70,43,30.27,29.91,6,2,14,0.02
2013-1-6,45.3,31.3,21.4,35.5,27.9,19.4,96,88,64,30.23,29.93,5,1,11,0.03
2013-1-7,43.4,29.6,17.3,34.6,24.3,15.6,96,83,45,30.41,29.99,7,1,12,0.01
2013-1-8,48.5,30.4,13.5,34.6,25.1,11.7,96,83,55,30.41,30.30,9,2,13,0.00
2013-1-9,45.7,35.1,18.7,40.0,31.0,17.3,97,86,70,30.40,30.05,6,1,12,0.00
2013-1-10,48.0,39.2,25.3,36.1,27.2,23.0,92,64,41,30.53,30.11,6,2,16,0.00
2013-1-11,41.9,29.6,22.6,41.1,26.1,21.1,97,87,71,30.52,30.18,1,0,3,0.22
2013-1-12,46.0,42.3,38.8,44.9,41.4,38.0,97,97,96,30.18,30.10,3,1,6,0.08
2013-1-13,51.3,45.3,39.2,50.5,44.7,38.3,98,98,96,30.16,30.02,5,1,10,0.01
2013-1-14,60.7,50.4,37.9,56.1,45.8,32.4,99,85,60,30.26,29.94,5,2,10,0.05
2013-1-15,41.3,36.5,33.1,35.2,33.4,31.0,96,89,67,30.31,30.20,3,0,7,0.17
2013-1-16,35.2,34.0,32.1,34.2,32.9,31.1,97,95,88,30.23,29.76,4,1,8,0.34
2013-1-17,43.6,35.5,29.7,36.8,30.1,20.9,98,82,60,30.08,29.86,6,1,11,0.15
2013-1-18,32.7,24.3,13.5,21.1,8.4,-1.4,87,53,29,30.49,30.00,8,3,17,0.00
2013-1-19,47.0,36.1,13.2,36.3,28.8,10.3,90,75,56,30.43,29.92,10,4,23,0.00
2013-1-20,54.4,43.8,28.9,38.2,29.6,13.0,83,59,29,29.94,29.60,11,5,20,0.00
2013-1-21,30.7,26.5,19.1,24.9,15.8,9.1,94,66,44,30.11,29.78,4,2,12,0.00
2013-1-22,25.7,20.4,9.1,24.0,7.3,-3.1,95,61,30,30.10,29.76,7,2,16,0.00
2013-1-23,20.5,12.2,4.6,-0.2,-4.0,-7.5,69,48,33,30.18,30.09,6,2,16,0.00
2013-1-24,18.9,9.5,-0.1,-0.5,-5.4,-7.6,74,52,33,30.28,30.11,7,2,18,0.00
2013-1-25,25.5,17.4,9.7,15.1,1.1,-3.7,89,50,31,30.34,30.04,5,2,11,0.00
2013-1-26,28.0,17.5,5.6,14.8,6.3,0.9,91,64,37,30.27,30.00,6,2,13,0.00
2013-1-27,33.6,18.8,4.4,11.3,5.2,0.3,87,59,29,30.48,30.27,6,2,16,0.00
2013-1-28,32.8,25.8,13.9,31.7,19.1,7.0,96,78,37,30.46,29.99,4,0,8,0.00
2013-1-29,38.1,33.8,30.1,35.3,32.2,28.8,96,94,89,30.19,29.99,4,1,6,0.16
2013-1-30,57.4,50.5,33.7,56.5,49.6,32.7,98,97,94,30.14,29.50,10,5,20,0.04
2013-1-31,58.6,48.6,31.4,57.6,37.2,12.3,97,68,37,29.64,29.05,15,8,25,0.66
2013-2-1,32.9,28.2,19.8,17.5,11.6,6.2,61,50,37,30.13,29.64,7,4,18,0.00
2013-2-2,31.4,25.0,15.0,20.5,12.5,6.9,80,59,44,30.28,30.06,7,3,13,0.00
2013-2-3,34.8,26.2,17.3,21.7,18.7,14.7,91,74,52,30.06,29.73,5,1,8,0.00
2013-2-4,32.0,23.6,17.6,17.3,12.5,8.0,88,65,38,29.97,29.75,8,2,14,0.00
2013-2-5,26.5,24.2,18.6,24.0,18.5,11.1,90,79,63,30.02,29.91,4,1,7,0.00
2013-2-6,39.3,31.1,26.2,29.2,21.2,4.3,93,69,36,30.32,29.90,5,1,14,0.03
2013-2-7,33.9,25.2,14.1,15.2,9.9,4.6,82,53,37,30.52,30.31,5,1,9,0.00
2013-2-8,32.9,30.5,22.2,31.9,27.4,14.4,97,89,65,30.45,29.44,10,5,17,0.00
2013-2-11,46.9,39.8,35.1,46.1,38.9,34.3,98,97,95,30.09,29.63,6,1,11,0.74
2013-2-12,47.2,37.8,27.3,41.5,31.5,25.1,98,80,50,29.91,29.64,7,2,13,0.00
2013-2-13,46.1,33.0,23.0,29.2,26.1,21.4,95,78,48,29.90,29.65,5,1,10,0.00
2013-2-14,48.4,34.8,24.5,33.8,26.9,22.2,96,77,39,30.01,29.69,5,1,10,0.12
2013-2-15,50.8,36.9,21.6,39.5,32.7,20.1,97,86,61,30.04,29.92,8,2,14,0.01
2013-2-16,37.2,32.9,26.9,33.4,30.9,25.9,97,92,82,29.94,29.65,5,2,10,0.02
2013-2-17,29.5,23.5,16.6,26.4,12.3,2.8,93,65,38,29.75,29.43,9,6,25,0.00
2013-2-18,33.4,22.9,15.4,12.6,3.6,-0.0,76,45,25,30.20,29.75,9,5,23,0.00
2013-2-19,49.4,34.6,14.1,44.8,29.0,10.2,97,81,58,30.21,29.59,9,2,16,0.56
2013-2-20,39.4,32.8,25.8,38.6,20.7,10.2,97,63,41,29.84,29.58,8,4,17,0.00
2013-2-21,35.1,27.8,22.2,17.3,15.2,13.7,72,59,46,30.22,29.82,9,4,20,0.00
2013-2-22,42.2,31.5,19.2,27.3,23.0,16.2,89,72,51,30.37,30.21,7,2,15,0.00
2013-2-23,39.2,35.0,30.2,34.8,31.6,26.8,95,88,79,30.32,29.82,7,2,12,0.21
2013-2-24,39.2,36.3,31.8,37.9,35.1,31.0,97,95,91,29.88,29.65,9,4,15,0.09
2013-2-25,41.2,35.3,30.5,34.5,31.9,29.8,97,88,67,30.24,29.88,7,1,14,0.01
2013-2-26,44.8,36.5,31.6,35.8,31.2,25.5,97,82,54,30.33,30.08,5,2,10,0.00
2013-2-27,43.9,41.3,36.2,42.7,40.2,33.0,98,96,86,30.09,29.56,10,5,24,1.65
2013-2-28,47.2,39.6,34.4,44.7,38.3,33.6,98,95,81,29.63,29.52,3,0,5,0.00
2013-3-1,50.7,38.9,29.3,39.0,30.5,27.7,98,74,47,29.68,29.52,10,2,19,0.00
2013-3-2,40.1,36.5,29.8,29.6,28.2,25.5,89,72,63,29.70,29.62,5,1,11,0.00
2013-3-3,42.8,35.2,30.6,29.4,27.3,24.3,89,73,57,29.65,29.56,5,2,10,0.00
2013-3-4,42.6,33.8,28.3,27.6,23.8,21.4,89,67,51,29.75,29.61,7,4,16,0.00
2013-3-5,45.9,35.6,27.1,31.7,26.6,22.0,92,71,54,30.06,29.75,9,2,15,0.00
2013-3-6,41.7,36.7,26.5,36.8,33.7,24.6,94,89,75,30.03,29.90,14,7,28,0.06
2013-3-7,37.9,34.8,32.4,33.6,31.2,28.4,96,87,81,29.95,29.88,14,10,29,0.02
2013-3-8,40.8,34.4,30.9,33.2,29.1,24.0,93,82,54,30.09,29.88,12,8,27,0.01
2013-3-9,52.6,40.3,25.3,29.6,23.9,18.7,93,55,28,30.33,30.09,10,5,19,0.00
2013-3-10,51.4,35.6,23.4,36.4,30.1,22.2,96,82,53,30.40,30.31,7,2,12,0.00
2013-3-11,53.7,42.7,34.2,44.1,38.8,32.1,96,87,67,30.34,30.15,7,2,12,0.00
2013-3-12,55.4,51.0,41.8,53.2,49.1,40.4,98,93,85,30.16,29.74,10,4,20,1.03
2013-3-13,52.5,42.8,29.5,50.6,33.1,24.3,98,72,37,29.80,29.71,6,2,13,0.00
2013-3-14,36.1,30.9,26.5,27.9,19.7,11.2,93,65,40,29.86,29.74,9,3,24,0.00
2013-3-15,42.9,33.2,25.2,30.0,18.2,7.7,79,55,31,29.90,29.68,8,3,17,0.00
2013-3-16,42.1,34.7,25.4,29.2,19.6,10.1,85,57,28,29.87,29.71,4,2,12,0.00
2013-3-17,39.5,31.0,21.9,26.4,16.0,5.9,91,58,26,30.30,29.87,7,2,16,0.00
2013-3-18,37.6,28.5,16.7,29.2,14.7,1.9,93,58,27,30.45,30.17,7,2,10,0.00
2013-3-19,40.0,35.0,30.9,38.2,33.5,29.1,96,94,91,30.17,29.56,9,4,18,0.56
2013-3-20,44.0,33.6,25.3,31.3,23.3,18.4,96,69,39,29.82,29.68,8,3,18,0.00
2013-3-21,39.7,32.6,24.7,29.2,26.1,21.9,93,78,59,29.83,29.59,6,2,15,0.00
2013-3-22,41.3,34.3,25.1,27.5,19.7,15.0,87,56,41,29.78,29.63,7,3,15,0.00
2013-3-23,45.7,36.2,25.1,26.7,22.0,18.1,90,59,35,29.83,29.68,8,4,20,0.00
2013-3-24,49.6,38.1,25.3,28.2,24.2,19.9,86,59,38,29.87,29.69,7,2,14,0.00
2013-3-25,45.2,40.9,34.7,34.5,30.6,26.8,93,68,50,29.64,29.44,11,6,20,0.04
2013-3-26,48.3,37.9,27.0,32.8,28.7,22.2,91,71,44,29.80,29.49,6,2,14,0.00
2013-3-27,54.9,39.6,21.6,31.4,25.5,19.1,92,61,32,29.87,29.75,6,2,16,0.00
2013-3-28,49.1,41.6,36.3,36.1,32.9,29.4,89,72,49,30.03,29.86,7,2,14,0.00
2013-3-29,58.9,44.6,29.0,38.4,31.9,27.7,96,65,34,30.07,29.97,6,1,13,0.00
2013-3-30,58.3,46.2,30.9,33.8,26.7,18.4,84,50,23,30.11,30.00,7,2,13,0.00
2013-3-31,57.9,42.1,23.9,45.0,31.1,21.0,95,69,33,30.13,29.68,8,3,19,0.22
2013-4-1,58.8,47.5,33.6,47.8,41.2,20.2,97,80,51,29.82,29.55,9,4,18,0.13
2013-4-2,44.2,34.2,22.8,22.5,16.2,9.0,84,50,26,29.99,29.82,10,3,20,0.00
2013-4-3,46.3,35.1,23.0,19.1,15.6,11.8,76,47,27,30.21,29.98,8,3,17,0.00
2013-4-4,51.6,38.5,23.8,33.5,22.9,14.8,84,56,27,30.35,30.10,8,3,14,0.00
2013-4-5,62.0,46.8,37.9,41.6,30.9,16.8,84,59,22,30.10,29.63,7,3,15,0.00
2013-4-6,50.6,39.6,27.7,27.1,17.5,6.2,77,44,17,30.33,29.89,7,3,19,0.00
2013-4-7,52.4,40.3,22.6,43.6,32.5,19.8,91,75,41,30.34,30.05,11,4,24,0.00
2013-4-8,69.8,52.9,39.6,47.9,42.4,38.2,97,72,32,30.09,29.98,6,2,13,0.00
2013-4-9,77.1,59.0,46.2,56.8,47.0,42.9,97,70,31,30.08,29.84,7,2,15,0.06
2013-4-10,69.6,52.5,46.0,54.5,47.2,43.5,95,83,58,30.06,29.84,7,2,12,0.30
2013-4-11,55.5,49.2,45.3,49.1,45.0,35.7,97,86,69,30.11,29.81,7,2,12,0.02
2013-4-12,45.4,41.8,39.1,38.8,36.1,30.5,95,81,61,30.12,29.72,9,5,18,0.61
2013-4-13,56.9,45.0,37.9,41.8,37.8,35.4,94,78,47,29.94,29.68,9,3,18,0.01
2013-4-14,55.4,45.1,32.7,43.1,34.7,26.8,96,70,40,30.23,29.94,6,2,14,0.00
2013-4-15,56.2,42.2,28.7,39.3,33.1,26.1,95,73,45,30.41,30.22,6,1,10,0.00
2013-4-16,59.7,47.4,30.0,50.0,42.4,28.9,97,84,64,30.42,30.14,10,4,19,0.00
2013-4-17,69.8,56.5,38.7,52.7,44.5,36.3,96,68,33,30.32,30.10,7,2,13,0.01
2013-4-18,61.6,48.3,31.3,48.9,38.1,30.3,97,72,38,30.41,30.16,7,2,14,0.00
2013-4-19,67.5,58.8,51.8,62.8,57.3,48.9,98,95,84,30.16,29.71,10,4,18,0.11
2013-4-20,61.3,53.3,42.5,60.7,44.6,30.9,98,75,38,30.23,29.65,11,3,18,0.62
2013-4-21,55.7,42.6,30.6,31.9,26.8,21.7,90,56,30,30.67,30.23,7,3,15,0.00
2013-4-22,54.0,41.9,27.6,38.9,32.4,26.3,96,72,42,30.71,30.55,9,4,17,0.00
2013-4-23,45.1,42.4,40.2,42.9,39.4,33.6,94,89,76,30.55,30.04,10,6,22,0.00
2013-4-24,70.5,52.2,43.0,49.8,44.8,40.4,97,78,44,30.04,29.86,9,5,18,0.00
2013-4-25,65.8,53.4,36.2,51.5,38.6,23.4,97,63,22,30.27,29.89,6,2,16,0.04
2013-4-26,63.7,48.4,29.6,43.9,35.7,27.0,94,66,36,30.41,30.26,6,2,13,0.00
2013-4-27,62.7,47.6,31.5,47.0,39.0,30.5,97,75,46,30.41,30.31,6,2,11,0.00
2013-4-28,66.2,50.0,31.7,44.4,35.6,23.4,96,65,29,30.35,30.25,6,2,12,0.00
2013-4-29,64.2,51.9,40.6,49.0,37.4,21.2,96,64,20,30.28,30.23,7,2,12,0.00
2013-4-30,67.1,52.9,36.4,42.7,33.3,23.3,93,54,20,30.35,30.25,5,2,11,0.00
2013-5-1,69.1,49.9,29.3,49.1,39.4,27.5,94,71,42,30.47,30.35,7,2,16,0.00
2013-5-2,73.3,55.1,33.3,49.1,41.1,32.3,97,65,33,30.46,30.32,8,2,21,0.00
2013-5-3,62.6,51.6,38.5,47.7,42.0,36.3,94,71,57,30.47,30.35,11,4,19,0.00
2013-5-4,64.4,50.1,34.8,47.4,39.6,33.6,97,71,35,30.36,30.25,9,3,16,0.00
2013-5-5,63.7,48.2,31.7,47.2,40.8,30.4,97,78,49,30.31,30.22,7,2,15,0.00
2013-5-6,70.2,55.4,42.5,53.7,46.7,41.1,95,74,52,30.28,30.15,6,2,11,0.00
2013-5-7,74.6,57.2,37.6,61.9,51.0,36.8,97,82,57,30.18,30.10,6,2,11,0.00
2013-5-8,68.5,59.2,49.3,63.9,57.4,48.4,98,94,81,30.16,30.03,6,2,13,0.24
2013-5-9,68.3,59.7,56.4,62.8,58.1,55.8,98,94,80,30.03,29.86,4,1,9,0.51
2013-5-10,79.5,65.7,55.8,60.9,56.9,53.4,97,76,44,29.96,29.90,7,2,11,0.00
2013-5-11,69.7,60.1,54.9,63.3,58.4,53.1,97,94,76,29.93,29.70,9,3,16,0.42
2013-5-12,72.0,60.3,44.2,62.6,53.9,39.2,98,81,46,29.84,29.58,8,2,14,0.02
2013-5-13,60.7,48.8,33.7,41.6,34.4,29.6,96,61,33,30.03,29.83,7,2,13,0.00
2013-5-14,59.6,45.7,31.3,37.9,32.8,29.6,95,65,35,30.07,29.98,6,1,10,0.00
2013-5-15,63.4,49.0,28.1,53.5,42.3,27.0,96,81,38,30.08,29.69,8,3,18,0.03
2013-5-16,80.2,61.7,42.8,56.9,49.2,40.8,98,70,27,29.79,29.67,8,2,13,0.00
2013-5-17,71.5,57.3,42.2,50.3,45.1,40.5,97,68,34,30.22,29.79,6,2,16,0.00
2013-5-18,72.9,55.9,37.5,53.5,46.0,36.5,97,74,33,30.31,30.22,6,2,10,0.00
2013-5-19,67.6,55.2,41.2,56.1,50.7,40.4,97,86,59,30.35,30.21,6,2,11,0.38
2013-5-20,79.0,65.8,57.0,69.7,62.3,56.2,98,89,70,30.21,29.93,5,2,12,0.12
2013-5-21,84.3,68.2,55.7,72.4,63.1,54.0,98,85,64,29.96,29.82,10,2,16,0.01
2013-5-22,81.5,62.9,52.6,71.8,59.4,51.2,97,89,67,29.97,29.85,8,2,14,0.00
2013-5-23,71.7,64.7,60.9,68.0,63.3,60.0,97,95,87,29.93,29.82,8,4,17,0.31
2013-5-24,72.2,62.4,49.0,67.2,60.5,47.9,98,94,79,29.82,29.66,6,2,14,0.56
2013-5-25,51.9,47.8,42.5,49.8,46.2,40.2,97,94,90,29.79,29.71,7,3,14,0.24
2013-5-26,60.1,49.8,39.9,49.6,43.0,38.6,95,79,57,30.15,29.78,7,3,20,0.04
2013-5-27,74.3,55.2,36.0,47.9,41.7,34.9,98,67,28,30.19,30.07,6,2,14,0.01
2013-5-28,74.6,57.7,39.4,56.5,48.6,38.6,97,75,35,30.22,30.17,5,1,10,0.00
2013-5-29,74.3,64.0,57.4,67.9,61.2,56.0,97,91,76,30.18,30.00,6,2,10,0.50
2013-5-30,90.0,74.3,58.7,73.9,67.3,57.8,98,81,53,30.10,30.00,5,1,10,0.11
2013-5-31,91.0,76.1,61.0,75.6,66.8,60.1,97,76,48,30.09,29.96,7,2,16,0.00
2013-6-1,86.5,73.0,60.1,72.2,65.9,59.2,97,80,56,29.99,29.90,8,2,14,0.00
2013-6-2,82.0,70.6,63.4,70.9,65.5,61.6,96,85,66,29.93,29.80,9,3,15,0.00
2013-6-3,71.0,65.9,62.1,69.0,64.5,59.3,97,95,84,29.84,29.77,5,2,10,0.60
2013-6-4,73.6,62.0,49.5,58.8,48.1,41.3,95,62,43,30.07,29.81,5,2,14,0.00
2013-6-5,72.6,59.0,44.8,57.1,48.6,44.0,97,73,42,30.19,30.06,6,2,11,0.00
2013-6-6,73.3,59.6,45.9,61.9,53.7,44.8,97,83,51,30.19,30.07,5,1,9,0.00
2013-6-7,61.1,58.5,56.1,60.0,57.0,54.5,97,95,87,30.07,29.72,8,3,17,3.33
2013-6-8,78.6,64.8,55.9,68.2,60.9,55.1,98,88,68,30.00,29.54,9,2,15,1.08
2013-6-9,80.1,67.0,52.6,65.4,59.1,51.8,98,78,49,30.16,30.00,4,1,10,0.00
2013-6-10,74.0,63.0,53.1,66.0,59.4,52.3,98,89,65,30.18,29.93,4,1,9,0.30
2013-6-11,79.8,67.0,59.8,70.6,64.5,58.7,98,92,69,29.93,29.54,5,2,12,1.78
2013-6-12,72.0,63.8,52.4,61.7,56.4,51.3,97,78,55,29.81,29.58,6,2,14,0.01
2013-6-13,62.4,55.9,47.1,60.0,54.3,46.3,98,95,90,29.82,29.56,8,1,18,0.42
2013-6-14,71.7,59.0,53.4,61.3,54.2,50.8,97,85,61,29.78,29.52,11,4,19,0.89
2013-6-15,79.6,65.1,51.2,59.4,53.0,46.5,98,71,33,29.95,29.78,5,1,10,0.01
2013-6-16,78.0,64.1,47.4,65.1,57.7,46.6,98,82,49,29.95,29.74,6,2,11,0.00
2013-6-17,84.0,69.8,55.7,70.1,63.3,54.8,98,82,55,29.90,29.79,6,2,13,0.01
2013-6-18,82.3,66.5,54.7,68.5,60.8,53.9,98,84,50,29.90,29.81,7,2,17,0.28
2013-6-19,75.5,63.9,54.4,61.9,56.5,50.8,96,79,46,30.14,29.85,6,2,12,0.03
2013-6-20,78.6,63.9,47.1,61.3,54.4,46.3,98,75,38,30.26,30.14,6,1,12,0.00
2013-6-21,79.8,67.0,51.2,66.3,59.0,50.4,98,77,56,30.28,30.21,7,2,14,0.00
2013-6-22,82.4,67.6,53.6,66.4,59.7,52.4,97,78,54,30.25,30.14,6,2,11,0.00
2013-6-23,85.2,73.5,60.3,72.2,67.2,59.4,98,82,60,30.18,30.04,7,2,13,0.00
2013-6-24,92.7,79.4,66.8,77.8,71.9,64.5,96,80,57,30.05,29.88,6,2,15,0.00
2013-6-25,91.7,76.4,63.0,75.6,69.2,62.0,97,80,49,29.94,29.74,6,2,14,0.34
2013-6-26,87.1,76.4,67.8,76.5,71.6,66.8,98,86,63,29.82,29.72,5,1,9,0.01
2013-6-27,75.8,71.4,68.1,71.4,69.6,67.2,98,94,86,29.81,29.69,5,1,9,0.03
2013-6-28,79.7,71.2,68.1,74.0,70.0,67.2,98,96,83,29.69,29.50,7,3,15,0.34
2013-6-29,80.1,72.4,69.3,73.2,69.9,68.4,98,92,74,29.72,29.49,7,3,15,0.02
2013-6-30,76.8,72.0,69.5,73.0,70.0,68.0,98,94,77,29.93,29.72,5,2,10,0.64
2013-7-1,75.3,71.7,70.2,73.5,70.9,69.6,98,97,93,30.08,29.93,5,2,10,0.39
2013-7-2,81.3,73.5,70.9,75.9,71.9,70.0,98,95,83,30.19,30.08,5,2,10,0.02
2013-7-3,86.0,77.0,70.0,77.1,72.9,69.3,98,88,71,30.22,30.16,6,2,13,0.00
2013-7-4,88.5,79.9,72.6,79.0,75.0,71.2,97,86,69,30.22,30.11,6,2,15,0.00
2013-7-5,90.6,79.9,69.4,80.9,74.2,68.5,98,84,61,30.17,30.06,7,2,14,0.00
2013-7-6,93.2,81.3,69.4,80.2,74.7,68.5,98,82,59,30.09,29.97,3,1,10,0.00
2013-7-7,92.8,80.6,69.4,81.2,74.1,68.7,98,82,56,30.01,29.90,6,1,14,0.00
2013-7-8,89.3,78.9,69.1,77.2,72.4,68.2,98,82,60,30.01,29.90,6,1,10,0.00
2013-7-9,85.1,73.2,69.1,76.0,70.9,68.2,97,93,71,30.07,29.99,5,1,9,0.93
2013-7-10,83.5,76.2,71.4,78.1,73.5,70.5,97,92,78,30.03,29.80,6,3,12,0.01
2013-7-11,79.8,74.7,69.0,75.5,72.8,68.1,98,94,84,29.89,29.78,2,1,5,0.32
2013-7-12,78.3,71.7,67.7,70.0,67.0,62.1,98,86,73,30.14,29.88,9,4,19,0.00
2013-7-13,79.2,71.8,66.4,75.7,70.0,64.7,97,94,87,30.28,30.14,4,1,8,0.13
2013-7-14,91.0,79.6,72.2,79.9,74.7,71.3,98,86,61,30.29,30.18,3,1,9,0.00
2013-7-15,93.3,81.1,70.3,77.9,73.7,69.5,98,81,54,30.19,30.08,6,1,11,0.00
2013-7-16,91.6,80.0,68.1,79.4,72.5,67.5,98,80,53,30.14,30.07,5,1,10,0.00
2013-7-17,90.4,77.8,67.7,78.4,71.7,67.0,98,83,60,30.16,30.02,5,1,10,0.00
2013-7-18,96.0,80.9,70.3,78.8,73.6,69.2,98,81,48,30.03,29.91,5,1,8,0.00
2013-7-19,95.0,82.9,71.5,81.8,76.5,70.6,98,82,61,29.93,29.75,8,2,13,0.00
2013-7-20,90.8,80.5,71.7,79.8,75.9,70.7,97,87,61,29.80,29.66,7,2,15,0.06
2013-7-21,85.3,75.9,65.6,72.1,68.8,64.5,97,80,60,29.97,29.80,4,1,8,0.07
2013-7-22,82.3,72.7,64.8,73.0,69.2,63.9,98,90,69,29.98,29.84,4,1,9,0.00
2013-7-23,86.0,76.2,70.2,78.3,73.4,69.1,98,92,74,29.84,29.53,7,2,12,0.12
2013-7-24,86.0,75.6,68.3,75.6,70.3,64.7,98,85,63,29.88,29.56,3,1,8,0.01
2013-7-25,71.0,63.4,59.9,64.7,58.5,54.3,95,84,71,30.04,29.88,7,4,12,0.11
2013-7-26,72.3,64.7,60.8,69.5,63.0,59.0,97,94,86,30.02,29.93,6,2,15,0.20
2013-7-27,83.5,71.9,60.3,71.8,66.1,59.4,99,84,52,30.05,29.96,5,1,10,0.00
2013-7-28,87.4,73.5,66.1,73.7,68.8,64.9,97,86,53,29.99,29.92,5,1,11,0.00
2013-7-29,84.3,74.8,66.7,75.7,70.9,65.8,97,88,71,30.03,29.94,6,2,12,0.02
2013-7-30,82.8,69.8,57.6,64.8,61.3,56.9,98,77,47,30.09,30.02,5,1,10,0.01
2013-7-31,83.9,68.3,52.8,66.4,60.9,52.3,98,80,47,30.12,30.03,5,1,8,0.00
2013-8-1,81.3,67.6,57.1,69.5,62.7,56.3,98,86,52,30.04,29.85,6,1,10,0.06
2013-8-2,86.0,72.4,63.9,70.5,65.9,62.7,98,82,49,29.87,29.77,5,1,10,0.03
2013-8-3,79.1,68.4,60.7,68.5,64.7,59.8,98,89,66,29.87,29.78,3,1,8,0.01
2013-8-4,82.6,68.1,54.7,63.2,58.8,54.1,98,76,45,29.89,29.77,6,1,12,0.01
2013-8-5,78.3,63.1,50.1,58.1,52.4,47.8,98,73,37,30.03,29.89,7,2,16,0.00
2013-8-6,79.9,63.4,45.2,60.7,52.3,44.4,98,73,36,30.14,30.03,5,1,11,0.00
2013-8-7,79.0,65.3,49.5,66.0,56.8,48.6,98,77,41,30.19,30.11,5,1,10,0.00
2013-8-8,78.3,71.8,63.4,71.7,68.4,61.5,96,89,79,30.12,30.02,6,2,10,0.00
2013-8-9,74.8,72.9,71.6,73.8,71.8,70.4,98,96,95,30.04,29.77,8,3,17,1.19
2013-8-10,84.8,73.7,58.9,72.8,66.6,56.9,98,81,51,30.01,29.79,4,1,8,0.00
2013-8-11,80.7,65.4,48.5,61.6,56.2,47.7,98,76,44,30.09,29.99,4,1,8,0.01
2013-8-12,82.5,68.2,55.7,68.5,62.0,54.9,98,83,51,30.03,29.91,4,1,8,0.00
2013-8-13,70.4,64.2,59.0,69.5,63.3,58.2,98,97,91,29.92,29.69,2,0,4,0.08
2013-8-14,75.2,65.5,54.4,62.5,56.7,52.8,98,75,52,29.97,29.67,6,2,14,0.00
2013-8-15,78.1,63.1,47.0,59.9,54.1,46.2,98,76,41,30.12,29.97,4,1,9,0.00
2013-8-16,80.3,65.0,48.9,65.5,55.9,48.1,98,76,43,30.19,30.11,4,1,9,0.00
2013-8-17,83.1,65.7,48.8,64.6,57.0,47.9,98,77,41,30.27,30.19,4,1,8,0.00
2013-8-18,77.7,64.5,53.8,66.2,59.3,53.0,98,85,55,30.26,30.09,2,0,5,0.01
2013-8-19,82.0,67.7,53.4,67.2,61.9,52.8,98,84,51,30.09,29.97,3,1,8,0.01
2013-8-20,86.6,72.0,57.9,69.8,63.1,57.2,98,78,42,30.10,29.99,4,1,10,0.01
2013-8-21,89.8,71.9,55.2,69.5,63.0,54.6,98,77,42,30.15,30.03,4,1,7,0.00
2013-8-22,82.1,70.1,61.5,75.6,68.2,60.6,98,94,78,30.05,29.84,4,1,8,0.12
2013-8-23,81.2,71.5,58.8,69.4,64.5,57.9,98,81,49,30.09,29.81,7,2,15,0.00
2013-8-24,78.0,64.1,50.1,57.8,52.9,44.0,97,72,32,30.33,30.09,7,2,11,0.00
2013-8-25,84.4,63.6,43.9,62.7,51.8,43.1,98,72,31,30.37,30.20,6,1,10,0.00
2013-8-26,82.0,68.8,57.2,68.4,63.8,56.1,97,85,60,30.21,29.89,6,1,9,0.49
2013-8-27,81.3,71.4,66.1,73.9,69.1,65.2,98,93,74,29.89,29.80,7,1,11,2.42
2013-8-28,83.8,71.0,63.4,74.4,67.4,62.6,98,90,67,29.92,29.83,4,1,8,0.01
2013-8-29,71.0,65.5,59.7,67.1,63.4,58.3,98,93,85,30.04,29.90,7,3,14,0.00
2013-8-30,80.9,67.3,56.9,71.8,64.1,55.8,98,90,72,30.02,29.84,3,1,7,0.00
2013-8-31,77.8,73.0,68.4,73.3,70.9,67.5,98,93,84,29.85,29.79,5,2,10,0.00
2013-9-1,80.0,74.4,70.2,75.6,72.6,69.3,98,94,86,29.86,29.80,4,2,10,1.73
2013-9-2,75.5,72.6,70.4,74.5,71.9,69.5,98,98,96,29.85,29.70,4,1,6,3.53
2013-9-3,77.0,70.5,61.4,74.6,69.6,60.8,99,97,88,29.82,29.67,3,0,6,0.61
2013-9-4,80.3,66.3,54.9,66.4,60.6,54.4,99,84,52,29.93,29.81,3,1,8,0.01
2013-9-5,74.3,61.9,50.4,64.6,58.2,49.6,98,89,64,30.12,29.88,7,1,11,0.00
2013-9-6,71.5,55.9,41.8,52.8,47.5,41.0,98,77,43,30.24,30.11,4,1,10,0.01
2013-9-7,76.5,58.9,40.3,59.0,51.1,39.8,98,79,45,30.12,29.88,6,1,10,0.00
2013-9-8,79.4,65.4,48.3,66.4,56.7,43.5,98,76,42,30.07,29.76,7,2,15,0.00
2013-9-9,69.3,54.6,38.8,54.4,47.2,38.0,98,79,45,30.24,30.07,4,1,8,0.00
2013-9-10,72.9,64.0,49.7,70.0,62.2,48.8,98,94,88,30.18,30.03,6,2,13,0.17
2013-9-11,92.5,76.2,65.7,80.7,72.2,65.0,99,88,66,30.09,29.97,6,1,10,0.00
2013-9-12,82.1,72.7,68.1,75.1,70.5,67.2,98,93,78,29.99,29.67,6,2,13,0.64
2013-9-13,81.3,69.9,60.9,71.6,66.5,57.9,98,90,63,29.74,29.56,3,1,8,0.09
2013-9-14,70.0,59.3,49.2,59.6,54.3,48.3,98,85,63,30.06,29.74,5,1,9,0.00
2013-9-15,71.8,55.6,42.8,56.2,50.3,42.3,98,84,52,30.18,30.06,4,1,9,0.00
2013-9-16,68.6,56.2,49.0,61.0,53.1,43.0,98,90,65,30.22,30.02,5,1,9,0.02
2013-9-17,62.4,51.7,39.3,48.2,41.9,38.3,97,71,46,30.41,30.22,8,3,13,0.00
2013-9-18,73.1,54.7,34.3,54.1,45.5,33.5,98,76,39,30.35,30.17,4,1,8,0.00
2013-9-19,79.2,56.5,38.2,60.0,49.8,37.5,98,82,41,30.17,30.05,5,1,8,0.01
2013-9-20,79.0,60.5,41.2,61.3,53.2,40.4,98,80,46,30.10,30.00,4,1,7,0.00
2013-9-21,75.0,63.8,50.4,68.0,61.0,49.9,98,91,77,30.03,29.73,8,2,16,0.01
2013-9-22,71.7,66.6,47.1,68.4,63.8,45.2,97,91,67,29.83,29.62,7,3,16,0.55
2013-9-23,65.5,52.4,41.3,51.4,46.1,40.1,97,81,56,30.01,29.83,5,1,12,0.00
2013-9-24,69.2,48.5,35.3,55.9,44.2,34.5,98,87,48,30.01,29.82,4,1,9,0.01
2013-9-25,71.5,55.3,39.2,57.4,49.2,38.4,98,82,55,29.97,29.86,5,1,11,0.00
2013-9-26,65.3,56.1,45.7,54.4,50.7,44.6,97,83,58,30.11,29.97,5,1,10,0.00
2013-9-27,65.5,56.2,45.6,57.5,52.3,44.8,97,88,70,30.26,30.10,6,1,12,0.00
2013-9-28,73.3,56.5,40.6,60.8,51.2,40.1,98,85,56,30.32,30.25,5,1,9,0.00
2013-9-29,69.0,53.7,40.1,56.0,48.4,39.6,98,85,50,30.25,30.10,6,1,8,0.01
2013-9-30,69.4,56.2,46.0,57.0,51.2,45.2,98,86,53,30.10,29.96,5,1,10,0.00
2013-10-1,78.0,58.2,40.1,63.1,51.7,39.6,98,83,45,29.97,29.85,4,1,11,0.01
2013-10-2,81.3,63.3,48.1,65.5,57.8,47.6,99,85,54,29.98,29.84,4,1,10,0.00
2013-10-3,78.3,56.1,43.9,61.6,51.5,43.3,99,88,42,30.09,29.97,3,0,5,0.01
2013-10-4,73.1,58.1,47.1,66.1,55.4,46.3,98,91,74,30.08,30.00,7,1,11,0.00
2013-10-5,74.3,62.3,56.3,66.0,59.9,55.4,98,92,74,30.11,30.03,3,0,6,0.40
2013-10-6,62.8,59.9,58.2,60.6,58.5,56.8,98,95,88,30.17,30.08,4,1,11,0.26
2013-10-7,76.4,69.6,60.4,71.3,67.1,59.4,98,92,82,30.09,29.84,9,4,21,0.07
2013-10-8,64.3,57.8,52.8,61.2,51.8,48.1,90,81,65,30.18,29.89,5,2,9,0.00
2013-10-9,58.2,49.5,47.3,47.7,46.5,45.3,95,90,68,30.36,30.33,2,0,17,0.00
2013-10-10,65.0,56.2,48.0,58.0,52.6,46.1,94,88,76,30.33,30.13,7,3,14,0.00
2013-10-11,68.2,60.2,48.9,61.1,55.3,42.5,94,84,62,30.12,30.05,8,4,14,0.00
2013-10-12,69.3,58.6,49.5,59.5,53.0,45.8,89,82,68,30.34,30.10,10,5,17,0.00
2013-10-13,61.7,53.0,38.9,52.3,48.6,37.8,97,86,71,30.42,30.32,7,2,12,0.00
2013-10-14,66.2,46.9,31.4,52.0,42.0,30.6,98,86,42,30.41,30.26,4,0,6,0.00
2013-10-15,71.0,51.4,36.7,55.3,45.3,35.9,98,83,49,30.28,30.16,5,1,11,0.01
2013-10-16,65.6,54.4,41.5,59.2,52.1,40.6,98,92,79,30.16,29.92,5,1,9,0.00
2013-10-17,71.0,60.2,51.5,64.3,58.2,50.6,98,93,78,29.92,29.73,4,1,8,0.00
2013-10-18,69.5,60.3,44.3,62.9,53.6,43.2,97,81,48,29.93,29.64,5,2,12,0.04
2013-10-19,65.2,50.0,33.2,52.7,44.7,32.3,98,84,50,29.99,29.75,4,1,10,0.01
2013-10-20,64.2,51.7,35.0,52.4,42.6,33.6,98,76,35,30.05,29.71,6,1,15,0.01
2013-10-21,67.0,46.4,29.4,48.0,38.5,28.6,98,79,39,30.14,30.01,5,1,11,0.00
2013-10-22,69.2,50.4,33.2,55.7,45.0,32.4,98,84,51,30.01,29.71,7,1,12,0.00
2013-10-23,49.2,40.7,34.0,43.2,38.9,33.2,97,94,68,29.81,29.62,2,0,4,0.02
2013-10-24,54.4,41.7,33.0,40.2,33.0,28.0,97,75,37,29.93,29.67,6,2,15,0.01
2013-10-25,51.3,38.6,26.6,37.2,30.5,25.1,96,75,46,30.19,29.92,5,1,13,0.00
2013-10-26,55.7,41.0,22.6,42.2,32.4,21.3,97,75,42,30.19,29.89,9,3,21,0.00
2013-10-27,57.9,47.2,29.7,45.1,36.3,28.1,96,68,42,30.09,29.83,5,1,11,0.02
2013-10-28,61.8,42.3,24.8,40.2,32.7,23.8,97,73,39,30.34,30.09,7,1,14,0.00
2013-10-29,54.4,40.9,29.9,33.2,29.6,27.0,93,66,38,30.43,30.34,5,0,10,0.00
2013-10-30,56.9,38.4,30.4,45.0,35.1,28.4,96,88,64,30.37,30.22,3,0,7,0.00
2013-10-31,63.5,51.1,35.1,61.7,49.4,34.1,97,94,86,30.25,29.83,7,2,13,0.09
2013-11-1,68.0,63.4,59.7,64.7,60.3,55.6,96,90,80,29.83,29.52,13,6,26,0.16
2013-11-2,68.0,56.8,48.6,56.2,51.3,43.2,96,83,42,29.72,29.59,4,1,6,0.00
2013-11-3,52.0,43.4,32.2,48.7,36.0,19.7,94,76,50,30.41,29.71,7,2,14,0.00
2013-11-4,44.9,33.8,23.6,25.7,21.6,18.6,92,63,36,30.70,30.41,7,1,12,0.00
2013-11-5,53.5,36.4,22.4,36.2,29.6,20.4,95,79,45,30.71,30.53,4,1,7,0.00
2013-11-6,60.1,45.5,30.2,51.1,41.3,28.8,97,86,60,30.53,30.08,7,2,14,0.00
2013-11-7,63.0,53.4,34.7,60.9,52.1,33.7,98,95,91,30.08,29.67,6,2,16,0.53
2013-11-8,50.6,38.2,28.6,40.8,30.9,23.9,98,78,47,30.14,29.85,7,2,15,0.01
2013-11-9,48.7,35.6,24.0,34.2,28.3,22.8,96,77,42,30.25,30.05,5,1,12,0.01
2013-11-10,59.4,45.6,37.1,45.2,39.3,34.4,96,81,48,30.05,29.73,4,1,12,0.02
2013-11-11,54.3,46.2,37.5,41.7,33.7,28.9,76,62,42,30.14,29.92,6,2,12,0.00
2013-11-12,51.7,38.5,27.9,40.0,31.1,17.6,94,76,59,30.20,29.89,5,1,14,0.09
2013-11-13,38.9,28.2,21.1,19.1,16.4,12.6,81,62,37,30.30,30.19,1,0,3,0.00
2013-11-14,52.0,36.3,21.7,28.8,22.8,16.5,86,62,30,30.23,30.08,4,0,21,0.00
2013-11-15,59.0,39.5,25.9,42.9,31.8,24.0,96,78,31,30.25,30.16,6,1,10,0.00
2013-11-16,62.4,42.6,28.8,43.0,36.0,27.8,97,81,41,30.33,30.22,4,1,7,0.00
2013-11-17,60.8,49.6,30.7,60.2,48.2,29.7,98,95,83,30.31,29.84,4,1,8,0.25
2013-11-18,65.0,56.6,42.8,61.9,51.2,36.1,98,84,54,29.84,29.56,9,3,18,0.56
2013-11-19,47.7,41.5,31.9,36.9,26.5,21.8,66,55,40,30.28,29.68,7,4,17,0.00
2013-11-20,43.2,31.1,19.6,22.1,17.1,10.2,88,59,27,30.63,30.28,7,2,17,0.00
2013-11-21,48.7,32.3,17.5,31.4,23.5,15.1,94,74,36,30.64,30.40,5,0,9,0.00
2013-11-22,52.1,44.4,36.2,51.3,42.4,31.5,98,93,82,30.40,29.84,1,0,4,0.10
2013-11-23,48.4,40.7,30.2,47.9,29.8,16.8,98,67,35,29.94,29.82,6,3,15,0.01
2013-11-24,30.2,24.8,21.9,18.6,5.7,-4.3,72,45,25,30.24,29.84,11,6,24,0.00
2013-11-25,35.3,25.0,17.1,21.1,8.2,-5.3,79,51,25,30.41,30.23,6,2,14,0.00
2013-11-26,45.0,38.3,27.0,44.2,27.8,19.5,97,68,50,30.34,29.99,5,2,11,0.11
2013-11-27,61.9,52.2,35.5,61.2,51.5,34.3,98,97,96,29.99,29.21,12,5,26,3.10
2013-11-28,37.1,30.8,21.4,34.4,19.3,9.7,96,63,39,30.47,29.53,8,3,16,0.00
2013-11-29,37.6,27.6,16.7,21.6,18.7,14.3,90,70,46,30.73,30.46,5,1,11,0.00
2013-11-30,70.4,18.3,11.5,44.9,-10.6,-99.9,94,59,23,30.78,30.42,6,-234,9,0.01
2013-12-1,44.9,36.8,28.0,44.4,35.4,24.6,98,95,87,30.42,30.00,2,0,3,0.24
2013-12-2,44.0,37.3,30.3,43.2,36.7,29.8,99,98,97,30.01,29.90,3,0,8,0.00
2013-12-3,52.2,38.0,28.5,43.0,34.4,27.8,98,89,53,29.98,29.83,6,1,10,0.00
2013-12-4,51.7,34.2,24.6,37.6,30.4,23.6,98,88,52,30.20,29.97,4,0,5,0.01
2013-12-5,54.7,46.9,31.1,54.1,45.9,30.1,98,96,93,30.19,29.94,5,1,8,0.01
2013-12-6,57.1,49.3,38.3,56.8,48.6,37.8,99,97,93,30.12,29.88,5,2,8,0.46
2013-12-7,40.4,34.2,26.0,37.9,31.3,23.9,98,90,66,30.47,30.06,6,2,20,0.20
2013-12-8,32.2,27.9,19.0,26.0,21.6,17.8,96,78,60,30.60,30.45,5,1,8,0.00
2013-12-9,39.9,34.5,27.6,39.1,33.2,22.1,98,95,73,30.47,29.91,6,2,13,0.02
2013-12-10,34.2,30.8,22.6,33.7,30.0,21.5,98,97,91,30.04,29.78,2,0,6,0.01
2013-12-11,31.9,25.3,19.0,24.2,21.4,17.3,97,85,69,30.28,30.05,6,1,12,0.00
2013-12-12,27.5,19.0,6.7,19.9,11.2,4.6,92,74,43,30.30,30.12,6,1,13,0.00
2013-12-13,33.0,21.1,7.3,19.4,13.5,5.1,92,74,48,30.36,30.06,6,2,11,0.00
2013-12-14,31.6,20.3,15.0,30.6,13.9,6.4,96,76,60,30.57,30.03,7,4,14,0.00
2013-12-15,37.0,31.5,21.4,36.5,30.2,20.2,98,95,86,30.03,29.38,9,3,24,0.01
2013-12-16,31.1,23.0,7.0,24.1,15.4,4.9,97,75,43,30.23,29.77,6,2,15,0.00
2013-12-17,23.8,15.1,1.7,21.8,12.4,-0.8,92,89,81,30.27,29.90,7,2,12,0.00
2013-12-18,36.7,26.4,18.1,24.4,20.8,16.4,94,81,56,30.13,29.85,7,3,13,0.01
2013-12-19,46.7,29.9,14.6,33.6,24.8,12.9,95,83,51,30.16,29.98,9,1,20,0.02
2013-12-20,52.5,37.3,27.8,42.6,33.5,26.8,96,87,62,30.14,29.96,6,1,11,0.00
2013-12-21,57.9,47.4,35.5,54.3,45.0,34.5,98,92,77,30.01,29.90,6,2,10,0.00
2013-12-22,62.3,58.7,56.1,59.8,56.7,54.1,96,93,83,29.98,29.83,10,5,19,0.00
2013-12-23,60.9,45.3,38.2,57.6,44.1,37.4,98,96,88,30.08,29.91,5,1,10,0.63
2013-12-24,39.6,34.0,27.6,38.7,26.8,17.5,97,76,53,30.24,30.03,6,2,13,0.00
2013-12-25,27.6,21.3,15.3,17.0,9.0,4.7,84,60,40,30.54,30.23,6,2,12,0.00
2013-12-26,39.9,28.6,19.3,35.8,25.2,15.3,95,87,77,30.48,30.09,3,0,7,0.04
2013-12-27,38.6,26.3,17.0,26.8,21.5,15.6,96,84,48,30.32,30.21,5,1,9,0.00
2013-12-28,50.4,32.6,20.5,35.0,26.0,19.0,97,80,43,30.26,30.03,8,1,15,0.01
2013-12-29,45.0,36.8,27.5,44.2,35.5,25.7,97,95,85,30.06,29.34,7,1,15,1.03
2013-12-30,42.4,32.5,19.0,40.1,26.4,11.4,98,80,52,30.16,29.54,4,2,13,0.00
2013-12-31,28.9,20.0,14.4,19.1,12.8,9.2,94,75,48,30.22,30.05,5,1,8,0.00
2014-1-1,30.9,23.2,11.5,20.3,13.2,8.1,90,67,42,30.40,30.22,5,1,11,0.00
2014-1-2,25.9,21.2,8.3,23.7,18.3,5.5,92,89,79,30.33,29.71,10,6,19,0.00